• Join FlightAware (Why Join?)
  • Login
  • US Flag 
12:51PM EST


 

Airport Tracker/Info


-or-


 

Live Flight TrackerFlight Track Log ✈ UAL685 ✈ 01-May-2013 ✈ KSAN - KEWR

Flight Track Log - Related Links

Times and Time Zones

All times are in EDT time to prevent confusion due to time zone crossing. See the UAL685 flight status page for this flight to view local times or setup timezone preferences in your user account.

Time Position Orientation Groundspeed Altitude Reporting Facility
EDT Latitude Longitude Course Direction KTS MPH feet Rate Location/Type
10:00AM 32.7417 -117.2208 73° East 155 178 1,300  Level Los Angeles Center
10:01AM 32.7550 -117.2867 284° West 198 228 2,600 1,854 Climbing Los Angeles Center
10:02AM 32.6123 -117.0449 103° East  Level FlightAware Approximate
10:02AM 32.7039 -117.3086 200° South 239 275 5,100  Level Los Angeles Center
10:03AM 32.6060 -116.9010 84° East  Level FlightAware Approximate
10:03AM 32.6464 -117.2567 143° Southeast 259 298 7,800  Level Los Angeles Center
10:04AM 32.6193 -116.7561 73° East  Level FlightAware Approximate
10:04AM 32.6331 -117.1347 97° East 304 350 10,500  Level Los Angeles Center
10:05AM 32.6343 -116.6126 73° East  Level FlightAware Approximate
10:05AM 32.6167 -117.0239 100° East 334 384 11,600  Level Los Angeles Center
10:06AM 32.6189 -116.8967 89° East 366 421 13,700 1,951 Climbing Los Angeles Center
10:07AM 32.6308 -116.7667 84° East 387 445 15,600 1,887 Climbing Los Angeles Center
10:08AM 32.6447 -116.6319 83° East 401 461 17,600 1,839 Climbing Los Angeles Center
10:09AM 32.6575 -116.4942 84° East 419 482 19,400 1,805 Climbing Los Angeles Center
10:10AM 32.6728 -116.3272 84° East 430 495 21,300 1,756 Climbing Los Angeles Center
10:11AM 32.6869 -116.1831 83° East 445 512 23,000 1,463 Climbing Los Angeles Center
10:12AM 32.7006 -116.0367 84° East 449 517 24,300 1,268 Climbing Los Angeles Center
10:13AM 32.7144 -115.8864 84° East 458 527 25,600 1,258 Climbing Los Angeles Center
10:14AM 32.7281 -115.7356 84° East 462 532 26,900 1,122 Climbing Los Angeles Center
10:15AM 32.7425 -115.5825 84° East 468 539 27,900 1,317 Climbing Los Angeles Center
10:16AM 32.7522 -115.3958 86° East 473 544 29,600 1,355 Climbing Los Angeles Center
10:17AM 32.7553 -115.2417 89° East 470 541 30,700 1,122 Climbing Los Angeles Center
10:18AM 32.7597 -115.0850 88° East 472 543 31,900 1,073 Climbing Los Angeles Center
10:19AM 32.7639 -114.9306 88° East 470 541 32,900 1,065 Climbing Los Angeles Center
10:20AM 32.7669 -114.7758 89° East 469 540 34,100 968 Climbing Los Angeles Center
10:21AM 32.7697 -114.6222 89° East 467 537 34,900 390 Climbing Los Angeles Center
10:22AM 32.7714 -114.4683 89° East 465 535 34,900 49 Level Los Angeles Center
10:23AM 32.7744 -114.2828 89° East 467 537 35,000 48 Climbing Los Angeles Center
10:24AM 32.7756 -114.1289 89° East 466 536 35,000  Level Los Angeles Center
10:25AM 32.7767 -114.0467 89° East 468 539 35,000  Level Albuquerque Center
10:26AM 32.7881 -113.8917 85° East 469 540 35,000 -48 Level Albuquerque Center
10:27AM 32.8108 -113.7389 80° East 468 539 34,900 -49 Descending Albuquerque Center
10:28AM 32.8572 -113.5622 73° East 463 533 34,900  Level Albuquerque Center
10:29AM 32.9106 -113.4208 66° East 464 534 34,900 48 Level Albuquerque Center
10:30AM 32.9633 -113.2786 66° East 466 536 35,000 48 Climbing Albuquerque Center
10:31AM 33.0175 -113.1364 66° East 468 539 35,000 -48 Level Albuquerque Center
10:32AM 33.0706 -112.9928 66° East 470 541 34,900  Descending Albuquerque Center
10:33AM 33.1236 -112.8508 66° East 468 539 35,000 48 Climbing Albuquerque Center
10:34AM 33.1761 -112.7069 66° East 470 541 35,000  Level Albuquerque Center
10:35AM 33.2306 -112.5611 66° East 469 540 35,000  Level Albuquerque Center
10:36AM 33.2828 -112.4186 66° East 471 542 35,000  Level Albuquerque Center
10:37AM 33.3456 -112.2461 66° East 473 544 35,000  Level Albuquerque Center
10:38AM 33.3983 -112.1011 66° East 475 547 35,000  Level Albuquerque Center
10:40AM 33.4503 -111.9578 66° East 476 548 35,000  Level Albuquerque Center
10:41AM 33.5019 -111.8156 66° East 473 544 35,000  Level Albuquerque Center
10:42AM 33.5533 -111.6733 67° East 471 542 35,000  Level Albuquerque Center
10:43AM 33.6147 -111.5008 67° East 474 545 35,000  Level Albuquerque Center
10:44AM 33.6658 -111.3561 67° East 477 549 35,000  Level Albuquerque Center
10:45AM 33.7178 -111.2103 67° East 479 551 35,000  Level Albuquerque Center
10:46AM 33.7697 -111.0642 67° East 479 551 35,000  Level Albuquerque Center
10:47AM 33.8322 -110.8864 67° East 484 557 35,000 242 Level Albuquerque Center
10:48AM 33.8856 -110.7400 66° East 481 554 35,500 629 Climbing Albuquerque Center
10:49AM 33.9506 -110.6014 60° Northeast 477 549 36,300 726 Climbing Albuquerque Center
10:50AM 34.0236 -110.4461 60° Northeast 481 554 37,000 339 Climbing Albuquerque Center
10:51AM 34.0878 -110.3072 61° Northeast 480 552 37,000  Level Albuquerque Center
10:52AM 34.1511 -110.1678 61° Northeast 479 551 37,000  Level Albuquerque Center
10:53AM 34.2167 -110.0231 61° Northeast 481 554 37,000  Level Albuquerque Center
10:54AM 34.2889 -109.8669 61° Northeast 479 551 37,000  Level Albuquerque Center
10:55AM 34.3497 -109.7319 61° Northeast 479 551 37,000  Level Albuquerque Center
10:56AM 34.4228 -109.5725 61° Northeast 483 556 37,000  Level Albuquerque Center
10:57AM 34.4842 -109.4336 62° Northeast 487 560 37,000  Level Albuquerque Center
10:58AM 34.5558 -109.2744 61° Northeast 485 558 37,000  Level Albuquerque Center
10:59AM 34.6175 -109.1350 62° Northeast 488 562 37,000  Level Albuquerque Center
11:00AM 34.6889 -108.9733 62° Northeast 488 562 37,000  Level Albuquerque Center
11:01AM 34.7500 -108.8339 62° Northeast 489 563 37,000  Level Albuquerque Center
11:02AM 34.8219 -108.6731 61° Northeast 487 560 37,000  Level Albuquerque Center
11:03AM 34.8831 -108.5331 62° Northeast 488 562 37,000  Level Albuquerque Center
11:04AM 34.9547 -108.3711 62° Northeast 488 562 37,000  Level Albuquerque Center
11:05AM 35.0150 -108.2306 62° Northeast 489 563 37,000  Level Albuquerque Center
11:06AM 35.0861 -108.0664 62° Northeast 491 565 37,000  Level Albuquerque Center
11:07AM 35.1467 -107.9264 62° Northeast 490 564 37,000  Level Albuquerque Center
11:08AM 35.2083 -107.7856 62° Northeast 491 565 37,000  Level Albuquerque Center
11:10AM 35.2789 -107.6203 62° Northeast 492 566 37,000  Level Albuquerque Center
11:11AM 35.3428 -107.4686 63° Northeast 490 564 37,000  Level Albuquerque Center
11:12AM 35.4089 -107.3119 63° Northeast 493 567 37,000  Level Albuquerque Center
11:13AM 35.4708 -107.1669 62° Northeast 495 570 37,000  Level Albuquerque Center
11:14AM 35.5344 -107.0156 63° Northeast 495 570 37,000  Level Albuquerque Center
11:15AM 35.5983 -106.8619 63° Northeast 499 574 37,000  Level Albuquerque Center
11:16AM 35.6717 -106.6853 63° Northeast 501 577 37,000 48 Level Albuquerque Center
11:17AM 35.7331 -106.5400 62° Northeast 501 577 37,100  Climbing Albuquerque Center
11:18AM 35.8022 -106.3697 63° Northeast 499 574 37,000 -48 Descending Albuquerque Center
11:19AM 35.8628 -106.2242 63° Northeast 499 574 37,000  Level Albuquerque Center
11:20AM 35.9264 -106.0658 64° Northeast 500 575 37,000  Level Albuquerque Center
11:21AM 35.9872 -105.9131 64° Northeast 498 573 37,000  Level Albuquerque Center
11:22AM 36.0478 -105.7617 64° Northeast 493 567 37,000  Level Albuquerque Center
11:23AM 36.1094 -105.6086 63° Northeast 495 570 37,000  Level Albuquerque Center
11:24AM 36.1775 -105.4353 64° Northeast 492 566 37,000  Level Albuquerque Center
11:25AM 36.2392 -105.2803 64° Northeast 493 567 37,000  Level Albuquerque Center
11:26AM 36.3008 -105.1261 64° Northeast 494 568 37,000  Level Albuquerque Center
11:27AM 36.3714 -104.9456 64° Northeast 493 567 37,000  Level Albuquerque Center
11:28AM 36.4308 -104.7922 64° Northeast 489 563 37,000  Level Albuquerque Center
11:29AM 36.4911 -104.6361 64° Northeast 492 566 37,000  Level Albuquerque Center
11:30AM 36.5525 -104.4786 64° Northeast 498 573 37,000  Level Albuquerque Center
11:31AM 36.6131 -104.3228 64° Northeast 496 571 37,000  Level Albuquerque Center
11:32AM 36.6731 -104.1656 65° Northeast 497 572 37,000  Level Albuquerque Center
11:33AM 36.7331 -104.0094 64° Northeast 494 568 37,000  Level Albuquerque Center
11:34AM 36.7925 -103.8522 65° Northeast 496 571 37,000  Level Albuquerque Center
11:35AM 36.8611 -103.6703 65° Northeast 492 566 37,000  Level Albuquerque Center
11:36AM 36.9200 -103.5142 65° Northeast 492 566 37,000  Level Albuquerque Center
11:37AM 36.9778 -103.3550 66° East 495 570 37,000  Level Albuquerque Center
11:38AM 37.0381 -103.2006 64° Northeast 492 566 37,000  Level Albuquerque Center
11:39AM 37.0961 -103.0422 65° Northeast 493 567 37,000  Level Albuquerque Center
11:41AM 37.1544 -102.8856 65° Northeast 493 567 37,000  Level Albuquerque Center
11:42AM 37.2122 -102.7244 66° East 494 568 37,000  Level Albuquerque Center
11:43AM 37.2758 -102.5483 66° East 495 570 37,000  Level Albuquerque Center
11:44AM 37.3306 -102.3986 65° Northeast 494 568 37,000  Level Albuquerque Center
11:45AM 37.3950 -102.2222 65° Northeast 496 571 37,000  Level Albuquerque Center
11:46AM 37.4492 -102.0697 66° East 498 573 37,000  Level Albuquerque Center
11:47AM 37.5128 -101.8919 66° East 498 573 37,000  Level Albuquerque Center
11:48AM 37.5486 -101.7897 66° East 499 574 37,000  Level Kansas City Center
11:49AM 37.6119 -101.6111 66° East 499 574 37,000  Level Kansas City Center
11:50AM 37.6658 -101.4581 66° East 498 573 37,000  Level Kansas City Center
11:51AM 37.7283 -101.2786 66° East 499 574 37,000  Level Kansas City Center
11:52AM 37.7817 -101.1258 66° East 494 568 37,000  Level Kansas City Center
11:53AM 37.8442 -100.9450 66° East 494 568 37,000  Level Kansas City Center
11:54AM 37.8983 -100.7892 66° East 498 573 37,000  Level Kansas City Center
11:55AM 37.9406 -100.6325 71° East 491 565 37,000  Level Kansas City Center
11:56AM 37.9803 -100.4478 75° East 485 558 37,000  Level Kansas City Center
11:57AM 38.0147 -100.2919 74° East 481 554 37,000  Level Kansas City Center
11:58AM 38.0544 -100.1103 74° East 480 552 37,000  Level Kansas City Center
11:59AM 38.0878 -99.9547 75° East 478 550 37,000  Level Kansas City Center
12:00PM 38.1275 -99.7714 75° East 481 554 37,000  Level Kansas City Center
12:01PM 38.1617 -99.6117 75° East 488 562 37,000 48 Level Kansas City Center
12:02PM 38.1978 -99.4522 74° East 487 560 37,100 48 Climbing Kansas City Center
12:03PM 38.2325 -99.2881 75° East 483 556 37,100 -48 Level Kansas City Center
12:04PM 38.2661 -99.1250 75° East 477 549 37,000 -48 Descending Kansas City Center
12:05PM 38.3078 -98.9306 75° East 474 545 37,000  Level Kansas City Center
12:06PM 38.3450 -98.7672 74° East 479 551 37,000  Level Kansas City Center
12:07PM 38.3772 -98.6025 76° East 478 550 37,000  Level Kansas City Center
12:08PM 38.4122 -98.4389 75° East 477 549 37,000  Level Kansas City Center
12:09PM 38.4456 -98.2753 75° East 473 544 37,000  Level Kansas City Center
12:10PM 38.4789 -98.1111 75° East 474 545 37,000  Level Kansas City Center
12:11PM 38.5119 -97.9467 76° East 475 547 37,000  Level Kansas City Center
12:12PM 38.5506 -97.7497 76° East 473 544 37,000  Level Kansas City Center
12:13PM 38.5825 -97.5867 76° East 472 543 37,000  Level Kansas City Center
12:14PM 38.6147 -97.4239 76° East 471 542 37,000  Level Kansas City Center
12:15PM 38.6461 -97.2625 76° East 467 537 37,000  Level Kansas City Center
12:16PM 38.6764 -97.1028 76° East 463 533 37,000  Level Kansas City Center
12:17PM 38.7072 -96.9425 76° East 463 533 37,000  Level Kansas City Center
12:19PM 38.7369 -96.7819 77° East 464 534 37,000  Level Kansas City Center
12:20PM 38.7747 -96.5897 76° East 464 534 37,000  Level Kansas City Center
12:21PM 38.8017 -96.4342 77° East 463 533 37,000  Level Kansas City Center
12:22PM 38.8328 -96.2531 78° East 466 536 37,000  Level Kansas City Center
12:23PM 38.8631 -96.1008 76° East 463 533 37,000  Level Kansas City Center
12:24PM 38.8906 -95.9467 77° East 463 533 37,000  Level Kansas City Center
12:25PM 38.9222 -95.7678 77° East 461 531 37,000  Level Kansas City Center
12:26PM 38.9497 -95.6164 77° East 457 526 37,000  Level Kansas City Center
12:27PM 38.9800 -95.4442 77° East 447 514 37,000  Level Kansas City Center
12:28PM 39.0097 -95.2789 77° East 445 512 37,000  Level Kansas City Center
12:29PM 39.0375 -95.1117 78° East 446 513 37,000  Level Kansas City Center
12:30PM 39.0653 -94.9522 77° East 449 517 37,000  Level Kansas City Center
12:31PM 39.0906 -94.8025 78° East 450 518 37,000  Level Kansas City Center
12:32PM 39.1208 -94.6269 77° East 452 520 37,000  Level Kansas City Center
12:34PM 39.1753 -94.3011 78° East 448 516 37,000  Level Kansas City Center
12:35PM 39.2003 -94.1506 78° East 450 518 37,000  Level Kansas City Center
12:36PM 39.2286 -93.9747 78° East 449 517 37,000  Level Kansas City Center
12:37PM 39.2533 -93.8247 78° East 447 514 37,000  Level Kansas City Center
12:38PM 39.2756 -93.6806 79° East 445 512 37,000  Level Kansas City Center
12:39PM 39.3067 -93.4956 78° East 444 511 37,000  Level Kansas City Center
12:40PM 39.3308 -93.3439 78° East 440 506 37,000  Level Kansas City Center
12:41PM 39.3544 -93.1911 79° East 438 504 37,000  Level Kansas City Center
12:42PM 39.3769 -93.0367 79° East 441 507 37,000  Level Kansas City Center
12:43PM 39.4003 -92.8825 79° East 442 509 37,000  Level Kansas City Center
12:44PM 39.4283 -92.6983 79° East 441 507 37,000  Level Kansas City Center
12:45PM 39.4514 -92.5483 79° East 434 499 37,000  Level Kansas City Center
12:46PM 39.4739 -92.3947 79° East 435 501 37,000  Level Kansas City Center
12:47PM 39.4956 -92.2431 79° East 436 502 37,000  Level Kansas City Center
12:49PM 39.5214 -92.0619 79° East 434 499 37,000  Level Kansas City Center
12:50PM 39.5431 -91.9106 79° East 433 498 37,000  Level Kansas City Center
12:51PM 39.5647 -91.7578 80° East 435 501 37,000  Level Kansas City Center
12:52PM 39.5867 -91.6039 79° East 438 504 37,000  Level Kansas City Center
12:53PM 39.6086 -91.4492 80° East 440 506 37,000  Level Kansas City Center
12:54PM 39.6331 -91.2708 80° East 437 503 37,000  Level Kansas City Center
12:55PM 39.6550 -91.1139 80° East 439 505 37,000  Level Kansas City Center
12:56PM 39.6753 -90.9589 80° East 438 504 37,000  Level Kansas City Center
12:57PM 39.6967 -90.8033 80° East 437 503 37,000  Level Kansas City Center
12:58PM 39.7181 -90.6461 80° East 440 506 37,000  Level Kansas City Center
12:59PM 39.7422 -90.4583 80° East 439 505 37,000  Level Kansas City Center
01:00PM 39.7600 -90.3058 81° East 441 507 37,000  Level Kansas City Center
01:01PM 39.7806 -90.1483 80° East 443 510 37,000  Level Kansas City Center
01:02PM 39.8003 -89.9903 81° East 444 511 37,000  Level Kansas City Center
01:03PM 39.8200 -89.8339 81° East 443 510 37,000  Level Kansas City Center
01:04PM 39.8408 -89.6433 82° East 443 510 37,000  Level Kansas City Center
01:05PM 39.8400 -89.4828 90° East 446 513 37,000  Level Kansas City Center
01:06PM 39.8414 -89.3242 89° East 444 511 37,000  Level Kansas City Center
01:07PM 39.8417 -89.1628 90° East 446 513 37,000  Level Kansas City Center
01:08PM 39.8419 -89.0036 90° East 444 511 37,000  Level Kansas City Center
01:09PM 39.8425 -88.8444 90° East 443 510 37,000  Level Kansas City Center
01:10PM 39.8419 -88.6519 90° East 445 512 37,000  Level Kansas City Center
01:11PM 39.8428 -88.4900 90° East 447 514 37,000  Level Kansas City Center
01:12PM 39.8442 -88.3269 89° East 451 519 37,000  Level Kansas City Center
01:13PM 39.8431 -88.1703 90° East 449 517 37,000  Level Kansas City Center
01:14PM 39.8414 -87.9744 91° East 449 517 37,000  Level Kansas City Center
01:15PM 39.8386 -87.8139 91° East 445 512 37,000  Level Kansas City Center
01:16PM 39.8375 -87.6489 90° East 449 517 37,000  Level Kansas City Center
01:18PM 39.8333 -87.4531 92° East 452 520 37,000  Level Indianapolis Center
01:19PM 39.8319 -87.2897 91° East 449 517 37,000  Level Indianapolis Center
01:20PM 39.8294 -87.1283 91° East 446 513 37,000  Level Indianapolis Center
01:21PM 39.8267 -86.9658 91° East 446 513 37,000  Level Indianapolis Center
01:22PM 39.8242 -86.8039 91° East 444 511 37,000  Level Indianapolis Center
01:23PM 39.8208 -86.6400 91° East 450 518 37,000  Level Indianapolis Center
01:24PM 39.8178 -86.4744 91° East 454 522 37,000  Level Indianapolis Center
01:25PM 39.8283 -86.3136 85° East 463 533 37,000  Level Indianapolis Center
01:26PM 39.8658 -86.1344 75° East 467 537 37,000  Level Indianapolis Center
01:27PM 39.8994 -85.9703 75° East 465 535 37,000  Level Indianapolis Center
01:28PM 39.9392 -85.7819 75° East 458 527 37,000  Level Indianapolis Center
01:29PM 39.9739 -85.6194 74° East 461 531 37,000  Level Indianapolis Center
01:30PM 40.0067 -85.4589 75° East 457 526 37,000  Level Indianapolis Center
01:31PM 40.0386 -85.2986 75° East 455 524 37,000  Level Indianapolis Center
01:32PM 40.0714 -85.1397 75° East 452 520 37,000  Level Indianapolis Center
01:33PM 40.1028 -84.9811 75° East 450 518 37,000 -48 Level Indianapolis Center
01:34PM 40.1381 -84.8064 75° East 447 514 36,900 -48 Descending Indianapolis Center
01:35PM 40.1700 -84.6478 75° East 447 514 36,900  Level Indianapolis Center
01:36PM 40.2022 -84.4889 75° East 447 514 36,900 49 Level Indianapolis Center
01:37PM 40.2317 -84.3306 76° East 443 510 37,000 48 Climbing Indianapolis Center
01:38PM 40.2639 -84.1719 75° East 445 512 37,000  Level Indianapolis Center
01:39PM 40.3028 -84.0189 72° East 439 505 37,000 -48 Level Indianapolis Center
01:40PM 40.3658 -83.8761 60° Northeast 444 511 36,900  Descending Indianapolis Center
01:41PM 40.4294 -83.7364 59° Northeast 439 505 37,000  Climbing Indianapolis Center
01:42PM 40.4928 -83.5981 59° Northeast 436 502 36,900 -48 Descending Indianapolis Center
01:43PM 40.5672 -83.4358 59° Northeast 438 504 36,900  Level Indianapolis Center
01:44PM 40.6303 -83.2956 59° Northeast 438 504 36,900 49 Level Indianapolis Center
01:45PM 40.6939 -83.1564 59° Northeast 439 505 37,000 54 Climbing Indianapolis Center
01:46PM 40.7494 -83.0333 59° Northeast 444 511 37,000  Level Cleveland Center
01:47PM 40.8131 -82.8931 59° Northeast 444 511 37,000  Level Cleveland Center
01:48PM 40.8719 -82.7550 61° Northeast 439 505 37,000  Level Cleveland Center
01:49PM 40.9328 -82.6142 60° Northeast 439 505 37,000  Level Cleveland Center
01:50PM 40.9958 -82.4703 60° Northeast 434 499 37,000  Level Cleveland Center
01:51PM 41.0586 -82.3317 59° Northeast 439 505 37,000  Level Cleveland Center
01:52PM 41.1189 -82.1928 60° Northeast 439 505 37,000  Level Cleveland Center
01:53PM 41.1814 -82.0481 60° Northeast 447 514 37,000  Level Cleveland Center
01:54PM 41.2436 -81.9086 59° Northeast 439 505 37,000  Level Cleveland Center
01:55PM 41.3056 -81.7661 60° Northeast 439 505 37,000  Level Cleveland Center
01:56PM 41.3653 -81.6289 60° Northeast 439 505 37,000  Level Cleveland Center
01:57PM 41.4247 -81.4858 61° Northeast 439 505 37,000  Level Cleveland Center
01:58PM 41.4842 -81.3453 61° Northeast 439 505 37,000  Level Cleveland Center
01:59PM 41.5433 -81.2044 61° Northeast 439 505 37,000  Level Cleveland Center
02:00PM 41.6047 -81.0608 60° Northeast 439 505 37,000  Level Cleveland Center
02:01PM 41.6633 -80.9167 61° Northeast 439 505 37,000  Level Cleveland Center
02:02PM 41.7181 -80.7861 61° Northeast 439 505 37,000  Level Cleveland Center
02:03PM 41.7681 -80.6417 65° Northeast 439 505 37,000  Level Cleveland Center
02:04PM 41.7597 -80.4775 94° East 425 489 37,000  Level Cleveland Center
02:05PM 41.7469 -80.3103 96° East 440 506 37,000  Level Cleveland Center
02:06PM 41.7319 -80.1464 97° East 445 512 37,000  Level Cleveland Center
02:07PM 41.7167 -79.9822 97° East 445 512 37,000  Level Cleveland Center
02:08PM 41.7008 -79.7989 97° East 445 512 37,000  Level Cleveland Center
02:09PM 41.6831 -79.6378 98° East 445 512 37,000  Level Cleveland Center
02:10PM 41.6714 -79.4933 96° East 440 506 37,000  Level Cleveland Center
02:11PM 41.6550 -79.3297 98° East 445 512 37,000  Level Cleveland Center
02:12PM 41.6386 -79.1633 97° East 445 512 37,000  Level Cleveland Center
02:13PM 41.6239 -79.0025 97° East 445 512 37,000 -200 Level Cleveland Center
02:14PM 41.6050 -78.8392 99° East 445 512 36,600 -700 Descending Cleveland Center
02:15PM 41.5919 -78.6786 96° East 445 512 35,600 -989 Descending Cleveland Center
02:17PM 41.5556 -78.3672 99° East 446 513 33,700 -994 Descending New York Center
02:18PM 41.5369 -78.2014 98° East 451 519 32,700 -992 Descending New York Center
02:19PM 41.5200 -78.0361 98° East 451 519 31,700 -850 Descending New York Center
02:20PM 41.4986 -77.8703 100° East 451 519 31,000 -353 Descending New York Center
02:21PM 41.4753 -77.7017 100° East 451 519 31,000  Level New York Center
02:22PM 41.4497 -77.5331 101° East 451 519 31,000 -350 Level New York Center
02:23PM 41.4256 -77.3700 101° East 456 525 30,300 -843 Descending New York Center
02:24PM 41.4033 -77.2017 100° East 456 525 29,300 -992 Descending New York Center
02:25PM 41.3769 -77.0361 102° East 456 525 28,300 -1,008 Descending New York Center
02:26PM 41.3522 -76.8706 101° East 456 525 27,300 -1,000 Descending New York Center
02:27PM 41.3189 -76.7047 105° East 456 525 26,300 -992 Descending New York Center
02:28PM 41.2767 -76.5464 109° East 456 525 25,300 -1,322 Descending New York Center
02:29PM 41.2322 -76.3908 111° Southeast 451 519 23,700 -2,118 Descending New York Center
02:30PM 41.1894 -76.2356 110° East 451 519 21,100 -2,876 Descending New York Center
02:31PM 41.1508 -76.0753 108° East 434 499 17,900 -2,132 Descending New York Center
02:32PM 41.1111 -75.9372 111° Southeast 409 471 16,800 -1,240 Descending New York Center
02:33PM 41.0792 -75.8111 109° East 403 464 15,400 -1,475 Descending New York Center
02:34PM 41.0392 -75.6678 110° East 392 451 13,900 -1,220 Descending New York Center
02:35PM 41.0064 -75.5525 111° Southeast 378 435 13,000 -545 Descending New York Center
02:36PM 40.9661 -75.4125 111° Southeast 378 435 12,800 -800 Descending New York Center
02:37PM 40.9353 -75.3003 110° East 355 409 11,400 -1,462 Descending New York Center
02:38PM 40.9114 -75.2136 110° East 300 345 9,900 -1,140 Descending New York Center
02:39PM 40.8839 -75.1158 110° East 285 328 9,100 -393 Descending New York Center
02:40PM 40.8542 -75.0125 111° Southeast 280 322 9,100 -645 Level New York Center
02:41PM 40.8242 -74.9200 113° Southeast 275 316 7,800 -1,068 Descending New York Center
02:42PM 40.7767 -74.8431 129° Southeast 275 316 7,000 -763 Descending New York Center
02:43PM 40.7333 -74.7747 130° Southeast 270 311 6,300 -496 Descending New York Center
02:44PM 40.6903 -74.6903 124° Southeast 263 303 6,000 -146 Descending New York Center
02:45PM 40.7219 -74.6181 60° Northeast 201 231 6,000  Level New York Center
02:46PM 40.7981 -74.5842 19° North 209 241 6,000  Level New York Center
02:47PM 40.8833 -74.5500 17° North 264 304 6,000  Level New York TRACON
02:48PM 40.9350 -74.5314 15° North 262 302 6,000  Level New York Center
02:49PM 40.9828 -74.4708 44° Northeast 254 292 6,000 -350 Level New York Center
02:50PM 41.0203 -74.4014 54° Northeast 224 258 5,300 -472 Descending New York Center
02:51PM 41.0000 -74.3167 108° East 216 249 5,000 -520 Descending New York TRACON
02:52PM 40.9667 -74.2500 123° Southeast 214 246 4,200 -500 Descending New York TRACON
02:53PM 40.9500 -74.1667 105° East 215 247 4,000 -300 Descending New York TRACON
02:54PM 40.9167 -74.1167 131° Southeast 193 222 3,600 -450 Descending New York TRACON
02:55PM 40.8833 -74.0833 143° Southeast 184 212 3,100 -350 Descending New York TRACON
02:56PM 40.8333 -74.0833 180° South 182 209 2,900 -200 Descending New York TRACON